Time;durP1;ratioP1;P1;durP2;ratioP2;P2;SDS_P1;SDS_P2;PMS_P1;PMS_P2;Temp;Humidity;BMP_temperature;BMP_pressure;BME280_temperature;BME280_humidity;BME280_pressure;Samples;Min_cycle;Max_cycle;Signal;HPM_P1;HPM_P2
2022/06/29 00:00:02;;;;;;;3.22;2.92;;;;;;;25.93;49.14;100784.62;1739893;81;21082;-83
2022/06/29 00:02:28;;;;;;;4.05;3.05;;;;;;;25.93;49.14;100783.84;1736819;82;21824;-83
2022/06/29 00:04:55;;;;;;;3.30;2.80;;;;;;;25.93;49.14;100788.23;1737147;82;21047;-83
2022/06/29 00:07:21;;;;;;;4.72;3.20;;;;;;;25.91;49.15;100785.00;1739017;82;21047;-83
2022/06/29 00:09:48;;;;;;;4.72;3.00;;;;;;;25.92;49.17;100791.39;1737257;82;21035;-83
2022/06/29 00:12:14;;;;;;;4.60;3.10;;;;;;;25.92;49.19;100795.57;1737020;82;21533;-83
2022/06/29 00:14:44;;;;;;;3.50;2.92;;;;;;;25.92;49.19;100794.17;1737215;82;21827;-83
2022/06/29 00:17:14;;;;;;;3.27;2.60;;;;;;;25.93;49.22;100795.77;1737428;82;21106;-83
2022/06/29 00:19:41;;;;;;;3.37;3.08;;;;;;;25.91;49.23;100789.18;1737263;82;21050;-83
2022/06/29 00:22:08;;;;;;;3.83;2.90;;;;;;;25.93;49.25;100789.41;1737340;82;21027;-83
2022/06/29 00:24:35;;;;;;;3.62;3.20;;;;;;;25.91;49.28;100790.57;1737524;82;21042;-83
2022/06/29 00:27:01;;;;;;;4.30;3.30;;;;;;;25.92;49.27;100785.81;1736869;82;21325;-83
2022/06/29 00:29:28;;;;;;;4.45;3.25;;;;;;;25.91;49.27;100776.64;1767933;81;21017;-83
2022/06/29 00:31:54;;;;;;;3.90;2.83;;;;;;;25.91;49.29;100777.22;1767618;81;21511;-83
2022/06/29 00:34:21;;;;;;;4.25;2.90;;;;;;;25.91;49.30;100780.00;1767109;80;21468;-83
2022/06/29 00:36:47;;;;;;;3.15;2.80;;;;;;;25.91;49.30;100779.42;1767194;81;21123;-83
2022/06/29 00:39:13;;;;;;;3.40;2.87;;;;;;;25.90;49.30;100780.58;1766843;81;21610;-83
2022/06/29 00:41:44;;;;;;;3.40;2.92;;;;;;;25.90;49.29;100770.83;1766750;81;21021;-83
2022/06/29 00:44:18;;;;;;;3.42;2.85;;;;;;;25.91;49.33;100779.42;1767045;81;21583;-83
2022/06/29 00:47:03;;;;;;;4.30;3.52;;;;;;;25.91;49.32;100775.82;1766827;81;21065;-83
2022/06/29 00:49:30;;;;;;;4.05;3.33;;;;;;;25.90;49.33;100777.80;1767057;81;21041;-83
2022/06/29 00:52:09;;;;;;;3.83;3.15;;;;;;;25.90;49.34;100777.80;1766723;81;21132;-83
2022/06/29 00:54:45;;;;;;;4.85;3.22;;;;;;;25.90;49.35;100781.98;1766957;81;21108;-83
2022/06/29 00:57:21;;;;;;;3.72;3.30;;;;;;;25.89;49.36;100771.98;1766825;81;21088;-83
2022/06/29 00:59:50;;;;;;;3.35;3.00;;;;;;;25.89;49.35;100773.95;1766535;81;21097;-83
2022/06/29 01:02:20;;;;;;;3.47;2.83;;;;;;;25.88;49.37;100771.78;1755256;81;21389;-83
2022/06/29 01:04:47;;;;;;;4.60;3.52;;;;;;;25.89;49.37;100772.56;1724511;82;21566;-83
2022/06/29 01:07:16;;;;;;;3.80;3.27;;;;;;;25.88;49.41;100762.02;1754417;81;20993;-83
2022/06/29 01:09:43;;;;;;;3.50;3.20;;;;;;;25.88;49.40;100764.81;1724126;82;21120;-84
2022/06/29 01:12:10;;;;;;;3.75;3.20;;;;;;;25.88;49.41;100766.20;1754516;81;21026;-83
2022/06/29 01:14:36;;;;;;;3.70;3.17;;;;;;;25.88;49.44;100764.81;1730555;82;21068;-83
2022/06/29 01:17:03;;;;;;;4.90;3.47;;;;;;;25.88;49.44;100770.96;1739063;82;21163;-83
2022/06/29 01:19:30;;;;;;;4.40;3.25;;;;;;;25.88;49.45;100773.75;1739142;82;21049;-82
2022/06/29 01:21:56;;;;;;;3.95;3.55;;;;;;;25.88;49.48;100768.99;1701627;83;21082;-83
2022/06/29 01:24:23;;;;;;;4.95;3.22;;;;;;;25.87;49.48;100765.16;1701663;83;21046;-83
2022/06/29 01:26:49;;;;;;;5.17;3.62;;;;;;;25.88;49.47;100762.60;1718431;83;21084;-83
2022/06/29 01:29:16;;;;;;;3.72;3.30;;;;;;;25.87;49.48;100761.78;1718343;82;22222;-82
2022/06/29 01:31:43;;;;;;;3.62;3.17;;;;;;;25.88;49.47;100757.03;1718153;83;21057;-82
2022/06/29 01:34:10;;;;;;;4.40;4.00;;;;;;;25.87;49.47;100763.19;1718808;82;21049;-83
2022/06/29 01:36:36;;;;;;;4.10;3.47;;;;;;;25.88;49.42;100759.81;1719398;83;21100;-83
2022/06/29 01:39:03;;;;;;;4.10;3.58;;;;;;;25.87;49.43;100768.75;1718917;83;21147;-82
2022/06/29 01:41:35;;;;;;;5.10;3.75;;;;;;;25.87;49.48;100765.16;1719074;83;21214;-82
2022/06/29 01:44:01;;;;;;;4.33;3.92;;;;;;;25.88;49.43;100764.00;1719006;83;21506;-83
2022/06/29 01:46:28;;;;;;;6.17;3.85;;;;;;;25.88;49.42;100772.36;1719107;82;21002;-83
2022/06/29 01:48:54;;;;;;;4.40;3.72;;;;;;;25.87;49.39;100767.36;1719106;83;21040;-83
2022/06/29 01:51:21;;;;;;;5.25;3.55;;;;;;;25.87;49.43;100769.34;1702904;83;21078;-83
2022/06/29 01:53:47;;;;;;;7.00;4.42;;;;;;;25.87;49.43;100771.55;1720417;83;21626;-83
2022/06/29 01:56:13;;;;;;;3.92;3.58;;;;;;;25.87;49.43;100771.55;1721114;82;20993;-84
2022/06/29 01:58:40;;;;;;;5.17;4.60;;;;;;;25.87;49.42;100772.13;1721007;82;21002;-83
2022/06/29 02:01:06;;;;;;;5.22;4.25;;;;;;;25.86;49.44;100780.25;1731637;82;21069;-83
2022/06/29 02:03:33;;;;;;;4.00;3.60;;;;;;;25.86;49.43;100783.85;1748679;82;21013;-83
2022/06/29 02:06:05;;;;;;;4.65;3.83;;;;;;;25.86;49.44;100774.09;1748599;82;21154;-83
2022/06/29 02:08:31;;;;;;;4.37;3.98;;;;;;;25.86;49.43;100778.85;1724275;82;21124;-83
2022/06/29 02:11:00;;;;;;;4.65;4.10;;;;;;;25.87;49.41;100777.70;1746870;82;21057;-83
2022/06/29 02:13:27;;;;;;;4.35;3.95;;;;;;;25.86;49.44;100779.67;1723655;82;21203;-82
2022/06/29 02:15:54;;;;;;;4.12;3.72;;;;;;;25.86;49.45;100785.83;1746766;82;21032;-83
2022/06/29 02:18:20;;;;;;;4.17;3.62;;;;;;;25.86;49.46;100788.03;1747049;82;21154;-83
2022/06/29 02:20:47;;;;;;;4.17;3.77;;;;;;;25.86;49.45;100785.83;1746966;82;21210;-83
2022/06/29 02:23:13;;;;;;;5.00;3.75;;;;;;;25.85;49.47;100786.98;1746840;81;21010;-83
2022/06/29 02:25:39;;;;;;;4.33;3.83;;;;;;;25.86;49.49;100780.25;1747060;82;21457;-83
2022/06/29 02:28:06;;;;;;;4.00;3.60;;;;;;;25.85;49.49;100780.02;1725070;82;21113;-83
2022/06/29 02:36:02;;;;;;;4.17;3.70;;;;;;;25.85;49.52;100786.98;1723712;83;21531;-83
2022/06/29 02:38:29;;;;;;;4.37;3.85;;;;;;;25.84;49.52;100780.59;1724217;83;21502;-83
2022/06/29 02:40:55;;;;;;;5.30;3.90;;;;;;;25.84;49.52;100781.98;1720828;83;21585;-83
2022/06/29 02:43:22;;;;;;;5.67;4.22;;;;;;;25.83;49.56;100778.99;1720448;83;21762;-83
2022/06/29 02:45:48;;;;;;;4.45;3.95;;;;;;;25.85;49.59;100782.80;1720928;83;21082;-83
2022/06/29 02:48:15;;;;;;;4.58;4.12;;;;;;;25.84;49.58;100784.77;1720877;83;21071;-83
2022/06/29 02:50:41;;;;;;;4.10;3.70;;;;;;;25.83;49.59;100776.20;1720584;83;21579;-83
2022/06/29 02:53:08;;;;;;;4.60;4.00;;;;;;;25.85;49.60;100781.41;1720865;83;21486;-83
2022/06/29 02:55:34;;;;;;;4.78;4.37;;;;;;;25.83;49.64;100777.59;1720759;83;21723;-83
2022/06/29 02:58:01;;;;;;;6.62;4.47;;;;;;;25.83;49.65;100780.97;1691972;83;21022;-83
2022/06/29 03:00:27;;;;;;;4.80;4.20;;;;;;;25.84;49.65;100786.16;1721014;82;21080;-83
2022/06/29 03:02:54;;;;;;;6.10;4.33;;;;;;;25.83;49.65;100791.53;1720503;82;21047;-83
2022/06/29 03:05:20;;;;;;;5.05;4.00;;;;;;;25.83;49.65;100790.14;1720662;83;21037;-83
2022/06/29 03:07:47;;;;;;;4.87;4.17;;;;;;;25.83;49.66;100788.75;1720874;83;21564;-83
2022/06/29 03:10:13;;;;;;;5.15;4.35;;;;;;;25.83;49.66;100791.53;1720635;83;21070;-83
2022/06/29 03:12:40;;;;;;;4.85;4.25;;;;;;;25.83;49.67;100793.51;1720437;83;21105;-83
2022/06/29 03:15:07;;;;;;;5.20;4.25;;;;;;;25.83;49.68;100793.51;1692064;83;21034;-83
2022/06/29 03:17:33;;;;;;;4.50;4.10;;;;;;;25.83;49.67;100787.93;1720973;83;21073;-83
2022/06/29 03:20:01;;;;;;;4.37;3.98;;;;;;;25.83;49.71;100789.33;1720988;83;21133;-83
2022/06/29 03:22:28;;;;;;;6.30;4.12;;;;;;;25.83;49.69;100795.72;1720757;83;21058;-83
2022/06/29 03:24:54;;;;;;;5.72;4.28;;;;;;;25.83;49.70;100800.47;1720970;83;21117;-83
2022/06/29 03:27:21;;;;;;;5.58;4.37;;;;;;;25.83;49.68;100794.90;1720880;83;21034;-83
2022/06/29 03:29:47;;;;;;;4.80;4.40;;;;;;;25.83;49.72;100793.51;1721107;83;21553;-83
2022/06/29 03:32:14;;;;;;;5.05;4.55;;;;;;;25.83;49.72;100792.11;1720890;83;22046;-83
2022/06/29 03:34:40;;;;;;;4.37;3.98;;;;;;;25.84;49.75;100797.92;1715640;83;21047;-83
2022/06/29 03:37:06;;;;;;;5.90;4.30;;;;;;;25.84;49.72;100802.89;1682205;85;21447;-83
2022/06/29 03:39:33;;;;;;;6.05;4.22;;;;;;;25.83;49.76;100802.69;1710440;83;21046;-83
2022/06/29 03:42:00;;;;;;;5.08;4.55;;;;;;;25.82;49.75;100799.66;1710493;83;21082;-83
2022/06/29 03:44:26;;;;;;;4.78;4.10;;;;;;;25.83;49.77;100801.87;1710699;83;22394;-83
2022/06/29 03:46:53;;;;;;;4.40;4.00;;;;;;;25.83;49.76;100794.32;1682085;85;21029;-82
2022/06/29 03:49:20;;;;;;;5.00;4.00;;;;;;;25.83;49.78;100794.32;1710546;83;21050;-83
2022/06/29 03:51:46;;;;;;;4.95;4.15;;;;;;;25.84;49.77;100796.53;1682147;85;21598;-83
2022/06/29 03:54:13;;;;;;;5.08;4.12;;;;;;;25.83;49.79;100799.08;1710665;83;21074;-82
2022/06/29 03:56:39;;;;;;;4.37;3.95;;;;;;;25.83;49.78;100804.08;1682047;85;21199;-83
2022/06/29 03:59:06;;;;;;;4.87;4.37;;;;;;;25.83;49.79;100808.26;1710731;83;21050;-83
2022/06/29 04:01:32;;;;;;;4.95;4.20;;;;;;;25.85;49.83;100807.88;1699046;83;21315;-82
2022/06/29 04:03:58;;;;;;;5.10;4.12;;;;;;;25.84;49.83;100807.07;1722340;83;21056;-83
2022/06/29 04:06:25;;;;;;;4.47;4.08;;;;;;;25.83;49.84;100815.23;1740460;82;21620;-82
2022/06/29 04:08:52;;;;;;;4.90;4.40;;;;;;;25.84;49.85;100825.80;1693613;83;21300;-83
2022/06/29 04:14:04;;;;;;;4.20;3.80;;;;;;;25.84;49.90;100825.80;1693277;84;21631;-83
2022/06/29 04:16:30;;;;;;;4.75;4.25;;;;;;;25.84;49.91;100825.80;1722023;83;21076;-83
2022/06/29 04:18:56;;;;;;;4.67;3.90;;;;;;;25.83;49.90;100836.13;1715241;82;21060;-83
2022/06/29 04:21:23;;;;;;;4.62;4.20;;;;;;;25.86;49.92;100830.42;1740481;82;21100;-83
2022/06/29 04:23:50;;;;;;;4.80;4.20;;;;;;;25.83;49.93;100827.77;1740095;82;21058;-83
2022/06/29 04:26:16;;;;;;;4.17;3.65;;;;;;;25.85;49.94;100826.81;1740339;82;21614;-83
2022/06/29 04:28:43;;;;;;;4.97;4.25;;;;;;;25.85;49.94;100826.81;1740403;82;21111;-83
2022/06/29 04:31:09;;;;;;;4.10;3.70;;;;;;;25.85;49.94;100825.42;1739968;81;21080;-83
2022/06/29 04:33:36;;;;;;;5.17;4.10;;;;;;;25.85;49.95;100818.45;1740540;82;21125;-83
2022/06/29 04:36:02;;;;;;;4.30;3.90;;;;;;;25.87;49.94;100816.72;1739919;82;21006;-83
2022/06/29 04:38:29;;;;;;;4.35;3.95;;;;;;;25.86;49.95;100826.23;1710490;83;21041;-83
2022/06/29 04:40:55;;;;;;;4.78;3.60;;;;;;;25.86;49.92;100832.63;1740249;82;21065;-83
2022/06/29 04:43:22;;;;;;;4.53;3.98;;;;;;;25.86;49.94;100835.41;1739303;82;21547;-83
2022/06/29 04:48:33;;;;;;;6.42;5.03;;;;;;;25.85;50.04;100827.39;1693348;84;21064;-83
2022/06/29 04:51:00;;;;;;;6.17;4.80;;;;;;;25.83;50.10;100822.77;1693131;84;21057;-83
2022/06/29 04:53:26;;;;;;;10.13;5.60;;;;;;;25.79;50.24;100827.43;1698047;83;21095;-83
2022/06/29 04:55:53;;;;;;;10.18;5.80;;;;;;;25.72;50.43;100836.37;1722259;83;21064;-83
2022/06/29 04:58:19;;;;;;;9.85;5.75;;;;;;;25.70;50.57;100840.10;1722373;83;21944;-83
2022/06/29 05:00:46;;;;;;;6.45;5.05;;;;;;;25.68;50.73;100834.63;1714293;83;21483;-83
2022/06/29 05:03:12;;;;;;;8.38;5.37;;;;;;;25.65;50.85;100838.95;1687978;85;21036;-83
2022/06/29 05:05:42;;;;;;;10.23;5.53;;;;;;;25.63;51.00;100840.47;1687895;85;21424;-83
2022/06/29 05:08:08;;;;;;;7.42;5.75;;;;;;;25.61;51.11;100835.81;1682032;85;21029;-83
2022/06/29 05:10:35;;;;;;;11.38;5.92;;;;;;;25.58;51.21;100838.73;1693577;84;21130;-83
2022/06/29 05:13:01;;;;;;;8.20;5.70;;;;;;;25.56;51.28;100841.05;1721858;83;21120;-83
2022/06/29 05:15:28;;;;;;;10.72;5.72;;;;;;;25.55;51.39;100840.81;1710384;83;21132;-83
2022/06/29 05:17:54;;;;;;;8.33;5.65;;;;;;;25.53;51.48;100837.58;1714902;83;21516;-83
2022/06/29 05:20:21;;;;;;;10.53;6.37;;;;;;;25.52;51.57;100835.10;1722119;83;21105;-83
2022/06/29 05:22:48;;;;;;;10.93;6.12;;;;;;;25.49;51.69;100831.05;1719100;83;21595;-82
2022/06/29 05:25:15;;;;;;;14.00;6.95;;;;;;;25.46;51.79;100826.19;1707628;83;21513;-82
2022/06/29 05:27:41;;;;;;;8.63;6.70;;;;;;;25.47;51.87;100830.58;1692635;84;21026;-82
2022/06/29 05:30:09;;;;;;;13.75;7.30;;;;;;;25.46;51.98;100833.94;1693067;83;21403;-83
2022/06/29 05:32:35;;;;;;;13.72;7.90;;;;;;;25.47;52.04;100828.61;1692618;84;21003;-83
2022/06/29 05:35:02;;;;;;;12.63;6.60;;;;;;;25.47;52.11;100828.61;1733879;80;21645;-82
2022/06/29 05:37:29;;;;;;;9.55;6.10;;;;;;;25.47;52.19;100825.82;1753513;81;20984;-83
2022/06/29 05:39:55;;;;;;;9.88;5.47;;;;;;;25.47;52.25;100831.39;1729995;81;21081;-82
2022/06/29 05:42:22;;;;;;;10.20;5.97;;;;;;;25.47;52.30;100823.04;1696396;82;21123;-82
2022/06/29 05:44:49;;;;;;;11.95;6.12;;;;;;;25.47;52.31;100820.25;1734158;81;21095;-83
2022/06/29 05:47:15;;;;;;;9.43;5.62;;;;;;;25.50;52.31;100816.55;1732816;82;21506;-83
2022/06/29 05:49:42;;;;;;;7.83;5.85;;;;;;;25.51;52.33;100816.17;1754123;80;21557;-83
2022/06/29 05:52:08;;;;;;;9.93;5.90;;;;;;;25.53;52.34;100822.26;1723075;83;21954;-83
2022/06/29 05:54:37;;;;;;;8.28;5.60;;;;;;;25.55;52.31;100820.49;1739901;81;21117;-83
2022/06/29 05:57:04;;;;;;;20.27;6.25;;;;;;;25.57;52.36;100825.15;1720692;82;21615;-84
2022/06/29 05:59:31;;;;;;;8.13;5.45;;;;;;;25.57;52.46;100826.55;1753131;81;22459;-84
2022/06/29 06:01:57;;;;;;;9.68;6.40;;;;;;;25.56;52.49;100821.55;1715788;81;21128;-84
2022/06/29 06:04:25;;;;;;;9.18;6.40;;;;;;;25.59;52.54;100822.84;1740775;80;21617;-84
2022/06/29 06:06:52;;;;;;;7.33;5.67;;;;;;;25.59;52.57;100829.80;1736362;81;21540;-83
2022/06/29 06:09:22;;;;;;;8.50;5.65;;;;;;;25.60;52.57;100825.25;1711233;83;21071;-83
2022/06/29 06:11:47;;;;;;;12.73;5.83;;;;;;;25.61;52.64;100821.89;1736316;81;21089;-83
2022/06/29 06:14:14;;;;;;;12.18;6.55;;;;;;;25.61;52.67;100819.92;1749347;82;21362;-83
2022/06/29 06:16:40;;;;;;;13.50;6.45;;;;;;;25.63;52.80;100822.36;1749264;82;21013;-83
2022/06/29 06:19:07;;;;;;;11.65;6.28;;;;;;;25.62;52.82;100817.38;1749571;82;21127;-83
2022/06/29 06:21:35;;;;;;;10.85;5.87;;;;;;;25.64;52.84;100820.59;1750049;82;20981;-84
2022/06/29 06:24:01;;;;;;;8.08;5.75;;;;;;;25.65;52.83;100820.84;1747671;82;21146;-83
2022/06/29 06:26:28;;;;;;;12.18;5.70;;;;;;;25.67;52.79;100821.31;1735835;82;21057;-82
2022/06/29 06:28:54;;;;;;;7.78;5.30;;;;;;;25.68;52.78;100823.48;1745152;81;21080;-81
2022/06/29 06:31:21;;;;;;;8.73;5.60;;;;;;;25.69;52.80;100822.33;1722352;82;21312;-82
2022/06/29 06:33:47;;;;;;;12.00;5.95;;;;;;;25.70;52.77;100819.78;1730062;81;21082;-82
2022/06/29 06:36:14;;;;;;;11.18;5.35;;;;;;;25.71;52.64;100813.88;1732625;82;21662;-82
2022/06/29 06:38:40;;;;;;;9.90;5.35;;;;;;;25.74;52.53;100812.34;1742591;82;21064;-82
2022/06/29 06:41:21;;;;;;;7.33;5.20;;;;;;;25.75;52.44;100816.76;1708093;82;21139;-82
2022/06/29 06:43:50;;;;;;;12.37;5.28;;;;;;;25.76;52.39;100814.99;1728570;82;21500;-82
2022/06/29 06:46:17;;;;;;;9.78;5.00;;;;;;;25.76;52.36;100809.42;1715437;82;21032;-82
2022/06/29 06:48:43;;;;;;;8.33;5.10;;;;;;;25.79;52.33;100809.31;1747721;82;21698;-82
2022/06/29 06:51:11;;;;;;;8.03;4.95;;;;;;;25.80;52.33;100810.34;1740594;82;21050;-82
2022/06/29 06:53:38;;;;;;;8.08;5.20;;;;;;;25.82;52.32;100816.38;1740690;82;21044;-82
2022/06/29 06:56:06;;;;;;;7.95;5.33;;;;;;;25.83;52.32;100800.47;1747694;82;21028;-86
2022/06/29 06:58:37;;;;;;;13.78;4.85;;;;;;;25.87;52.40;100799.99;1745460;81;21547;-82
2022/06/29 07:01:06;;;;;;;8.00;4.70;;;;;;;25.87;52.37;100803.59;1758418;80;22237;-81
2022/06/29 07:03:35;;;;;;;8.85;5.05;;;;;;;25.88;52.23;100796.87;1740981;81;21065;-82
2022/06/29 07:06:04;;;;;;;12.78;6.10;;;;;;;25.90;52.17;100801.48;1721659;81;20997;-81
2022/06/29 07:08:31;;;;;;;9.03;5.00;;;;;;;25.92;52.20;100794.17;1719294;81;21574;-82
2022/06/29 07:10:59;;;;;;;9.30;5.33;;;;;;;25.93;52.19;100795.77;1689781;82;21315;-81
2022/06/29 07:13:26;;;;;;;8.50;4.42;;;;;;;25.95;52.13;100794.04;1765505;80;22463;-81
2022/06/29 07:15:52;;;;;;;12.33;5.15;;;;;;;25.96;52.06;100792.87;1783783;80;21064;-81
2022/06/29 07:18:19;;;;;;;7.17;5.05;;;;;;;25.97;51.99;100793.12;1751778;80;21363;-81
2022/06/29 07:20:45;;;;;;;11.08;5.25;;;;;;;25.99;51.97;100800.53;1675183;84;21053;-81
2022/06/29 07:23:12;;;;;;;6.17;4.83;;;;;;;26.00;51.90;100787.64;1695419;83;21096;-81
2022/06/29 07:25:38;;;;;;;6.25;4.65;;;;;;;26.01;51.91;100794.84;1727589;82;21153;-81
2022/06/29 07:28:05;;;;;;;5.60;4.53;;;;;;;26.02;51.88;100786.69;1728124;82;21080;-81
2022/06/29 07:30:32;;;;;;;10.10;5.40;;;;;;;26.03;51.74;100788.31;1724356;82;22092;-81
2022/06/29 07:32:58;;;;;;;7.30;4.90;;;;;;;26.05;51.63;100789.36;1733599;80;21111;-81
2022/06/29 07:35:26;;;;;;;8.15;5.10;;;;;;;26.06;51.55;100787.59;1727830;81;21100;-81
2022/06/29 07:37:54;;;;;;;8.65;4.90;;;;;;;26.07;51.48;100790.62;1733682;81;21167;-81
2022/06/29 07:40:20;;;;;;;8.55;5.33;;;;;;;26.08;51.45;100790.03;1742015;81;21048;-81
2022/06/29 07:42:47;;;;;;;7.85;5.17;;;;;;;26.10;51.38;100794.66;1730092;82;21078;-80
2022/06/29 07:45:13;;;;;;;8.45;4.70;;;;;;;26.11;51.30;100790.13;1736068;81;21072;-80
2022/06/29 07:47:40;;;;;;;7.42;5.03;;;;;;;26.12;51.23;100789.55;1738291;81;21025;-80
2022/06/29 07:50:07;;;;;;;6.45;4.85;;;;;;;26.14;51.11;100794.20;1735711;82;21943;-81
2022/06/29 07:52:33;;;;;;;7.30;5.10;;;;;;;26.15;51.01;100787.44;1731612;82;21151;-81
2022/06/29 07:55:01;;;;;;;10.63;5.35;;;;;;;26.15;50.92;100789.65;1736500;82;21641;-80
2022/06/29 07:57:33;;;;;;;6.45;4.85;;;;;;;26.19;50.87;100795.31;1748137;81;21041;-80
2022/06/29 08:00:00;;;;;;;8.20;5.08;;;;;;;26.19;50.68;100792.53;1713900;82;21132;-81
2022/06/29 08:02:26;;;;;;;9.38;5.03;;;;;;;26.20;50.56;100791.41;1731323;81;22215;-81
2022/06/29 08:04:56;;;;;;;7.67;4.45;;;;;;;26.21;50.47;100794.42;1729536;81;21334;-80
2022/06/29 08:07:22;;;;;;;6.85;4.75;;;;;;;26.22;50.43;100795.47;1739323;81;21052;-80
2022/06/29 08:09:49;;;;;;;6.72;4.70;;;;;;;26.25;50.25;100796.73;1757288;80;20977;-80
2022/06/29 08:12:16;;;;;;;8.90;4.97;;;;;;;26.27;50.07;100793.80;1761795;80;21069;-81
2022/06/29 08:14:43;;;;;;;11.40;4.60;;;;;;;26.29;49.94;100801.82;1761214;81;21926;-80
2022/06/29 08:17:09;;;;;;;6.10;4.20;;;;;;;26.29;49.71;100797.05;1748854;81;21126;-80
2022/06/29 08:19:36;;;;;;;5.95;4.37;;;;;;;26.30;49.58;100798.69;1734773;81;21052;-80
2022/06/29 08:22:03;;;;;;;7.30;4.53;;;;;;;26.32;49.43;100801.09;1734765;81;21716;-81
2022/06/29 08:24:29;;;;;;;6.10;3.90;;;;;;;26.32;49.25;100801.91;1733305;81;21069;-81
2022/06/29 08:26:55;;;;;;;9.80;4.58;;;;;;;26.34;49.00;100794.02;1733205;82;21094;-81
2022/06/29 08:29:22;;;;;;;10.03;4.75;;;;;;;26.35;48.76;100786.46;1744967;81;21474;-81
2022/06/29 08:31:49;;;;;;;8.50;4.72;;;;;;;26.36;48.58;100787.48;1745059;82;21049;-80
2022/06/29 08:34:27;;;;;;;9.50;4.70;;;;;;;26.37;48.36;100785.50;1741328;81;21701;-81
2022/06/29 08:36:52;;;;;;;9.00;4.60;;;;;;;26.39;48.19;100786.55;1738907;81;21122;-80
2022/06/29 08:39:19;;;;;;;7.40;4.37;;;;;;;26.41;47.95;100793.96;1734455;82;21131;-80
2022/06/29 08:41:51;;;;;;;7.85;4.20;;;;;;;26.43;47.71;100791.06;1731817;81;21120;-80
2022/06/29 08:44:18;;;;;;;5.10;3.70;;;;;;;26.44;47.56;100787.08;1722488;81;21063;-81
2022/06/29 08:46:44;;;;;;;7.45;4.20;;;;;;;26.47;47.34;100791.15;1721316;82;21004;-80
2022/06/29 08:49:11;;;;;;;10.82;4.22;;;;;;;26.47;47.14;100784.98;1738373;81;21032;-81
2022/06/29 08:51:37;;;;;;;13.72;4.20;;;;;;;26.50;46.94;100791.81;1738905;81;21103;-81
2022/06/29 08:54:06;;;;;;;7.85;3.85;;;;;;;26.51;46.86;100790.66;1748771;81;21518;-81
2022/06/29 08:56:32;;;;;;;6.33;4.15;;;;;;;26.52;46.80;100788.10;1732139;81;21068;-80
2022/06/29 08:59:00;;;;;;;10.10;4.28;;;;;;;26.53;46.71;100787.72;1762340;80;21121;-80
2022/06/29 09:01:28;;;;;;;6.30;3.70;;;;;;;26.54;46.51;100788.53;1750267;80;21056;-80
2022/06/29 09:03:55;;;;;;;6.72;3.83;;;;;;;26.54;46.26;100793.53;1747339;81;21088;-80
2022/06/29 09:06:22;;;;;;;5.83;4.22;;;;;;;26.56;45.99;100793.19;1739721;81;21065;-80
2022/06/29 09:08:50;;;;;;;5.08;3.87;;;;;;;26.56;45.60;100789.00;1735096;81;21073;-80
2022/06/29 09:11:31;;;;;;;4.70;3.60;;;;;;;26.59;45.48;100790.48;1714054;82;21642;-80
2022/06/29 09:14:23;;;;;;;4.62;3.42;;;;;;;26.59;45.43;100786.88;1739807;81;21144;-80
2022/06/29 09:16:59;;;;;;;10.18;3.72;;;;;;;26.60;45.31;100777.34;1732311;82;21144;-81
2022/06/29 09:19:36;;;;;;;7.35;3.60;;;;;;;26.64;45.17;100779.65;1745122;81;21080;-80
2022/06/29 09:22:03;;;;;;;8.43;3.42;;;;;;;26.68;45.03;100783.34;1755035;81;21068;-80
2022/06/29 09:24:32;;;;;;;4.67;3.37;;;;;;;26.73;44.74;100777.49;1733886;81;21065;-80
2022/06/29 09:27:06;;;;;;;7.10;3.58;;;;;;;26.77;44.67;100776.99;1756877;81;21064;-80
2022/06/29 09:29:35;;;;;;;6.83;3.55;;;;;;;26.77;44.63;100779.79;1750276;81;21785;-81
2022/06/29 09:32:12;;;;;;;6.10;3.20;;;;;;;26.79;44.49;100774.64;1712504;82;21093;-81
2022/06/29 09:34:48;;;;;;;6.30;3.55;;;;;;;26.84;44.27;100771.58;1714664;82;21069;-80
2022/06/29 09:37:19;;;;;;;4.80;3.12;;;;;;;26.83;44.10;100768.55;1725795;81;21124;-80
2022/06/29 09:39:50;;;;;;;8.23;3.55;;;;;;;26.82;43.90;100776.12;1730378;82;21151;-80
2022/06/29 09:42:20;;;;;;;8.38;3.30;;;;;;;26.83;43.74;100772.75;1724184;81;21562;-81
2022/06/29 09:44:46;;;;;;;5.73;3.40;;;;;;;26.86;43.65;100766.49;1743622;81;21724;-81
2022/06/29 09:47:19;;;;;;;5.60;3.35;;;;;;;26.86;43.49;100769.28;1739356;81;21063;-81
2022/06/29 09:49:59;;;;;;;9.23;3.05;;;;;;;26.87;43.28;100768.67;1749880;81;21123;-81
2022/06/29 09:52:25;;;;;;;3.52;2.90;;;;;;;26.86;43.08;100767.89;1746063;80;21535;-81
2022/06/29 09:54:54;;;;;;;5.78;3.10;;;;;;;26.84;42.84;100756.23;1745222;80;21017;-81
2022/06/29 09:57:26;;;;;;;4.17;3.08;;;;;;;26.85;42.80;100754.28;1751033;80;21041;-81
2022/06/29 10:02:43;;;;;;;6.08;3.00;;;;;;;26.80;43.27;100753.35;1741086;81;21499;-81
2022/06/29 10:05:17;;;;;;;5.58;3.02;;;;;;;26.78;42.99;100765.45;1736676;81;21051;-81
2022/06/29 10:07:46;;;;;;;5.28;3.10;;;;;;;26.78;42.77;100757.66;1748326;80;21634;-80
2022/06/29 10:10:16;;;;;;;8.48;2.98;;;;;;;26.80;42.55;100756.73;1742719;80;21090;-80
2022/06/29 10:13:42;;;;;;;6.62;3.10;;;;;;;26.79;42.40;100751.72;1730911;81;21049;-81
2022/06/29 10:16:32;;;;;;;3.92;2.65;;;;;;;26.82;42.39;100754.37;1746245;80;21151;-81
2022/06/29 10:19:32;;;;;;;5.90;3.20;;;;;;;26.83;42.30;100750.41;1734167;81;21145;-81
2022/06/29 10:21:59;;;;;;;6.47;2.77;;;;;;;26.83;42.14;100755.41;1719574;81;21319;-81
2022/06/29 10:24:26;;;;;;;4.55;2.67;;;;;;;26.85;42.01;100745.32;1765081;81;21924;-81
2022/06/29 10:26:53;;;;;;;3.12;2.67;;;;;;;26.87;41.86;100753.31;1752755;81;21071;-81
2022/06/29 10:29:25;;;;;;;3.65;2.62;;;;;;;26.88;41.76;100755.76;1733162;82;21069;-81
2022/06/29 10:32:00;;;;;;;5.67;2.47;;;;;;;26.90;41.71;100749.83;1716489;81;37017;-81
2022/06/29 10:34:34;;;;;;;5.75;2.95;;;;;;;26.90;41.65;100749.24;1729287;81;21116;-81
2022/06/29 10:37:14;;;;;;;5.15;3.10;;;;;;;26.91;41.63;100746.65;1741205;81;21488;-81
2022/06/29 10:39:49;;;;;;;6.57;2.43;;;;;;;26.92;41.53;100743.28;1702623;81;21467;-81
2022/06/29 10:45:20;;;;;;;3.45;2.70;;;;;;;26.94;41.22;100737.58;1713559;83;21686;-81
2022/06/29 10:47:58;;;;;;;2.70;2.30;;;;;;;26.96;41.24;100744.17;1713631;83;21738;-81
2022/06/29 10:50:26;;;;;;;6.40;3.05;;;;;;;26.95;41.26;100737.77;1713621;83;21073;-81
2022/06/29 10:53:04;;;;;;;6.22;2.55;;;;;;;26.96;41.24;100730.20;1749377;81;21540;-81
2022/06/29 10:55:33;;;;;;;4.75;2.37;;;;;;;26.99;41.07;100737.27;1732831;82;21070;-81
2022/06/29 10:58:05;;;;;;;7.00;2.73;;;;;;;27.01;40.91;100725.16;1721568;81;21089;-81
2022/06/29 11:00:38;;;;;;;3.45;2.40;;;;;;;27.03;40.77;100722.02;1729830;81;21880;-81
2022/06/29 11:03:17;;;;;;;5.75;2.45;;;;;;;27.05;40.67;100723.27;1736112;81;21041;-81
2022/06/29 11:14:02;;;;;;;3.90;2.10;;;;;;;27.12;40.22;100726.80;1749518;81;21562;-81
2022/06/29 11:16:36;;;;;;;6.12;2.30;;;;;;;27.11;40.08;100721.83;1703487;83;21084;-82
2022/06/29 11:19:03;;;;;;;2.60;2.02;;;;;;;27.14;40.00;100720.27;1747493;82;21600;-81
2022/06/29 11:21:30;;;;;;;3.70;2.45;;;;;;;27.13;39.90;100717.25;1756914;80;21070;-81
2022/06/29 11:24:03;;;;;;;5.28;2.62;;;;;;;27.14;39.81;100717.48;1742634;80;20987;-81
2022/06/29 11:26:42;;;;;;;2.52;1.80;;;;;;;27.14;39.73;100711.89;1731987;81;21184;-81
2022/06/29 11:29:13;;;;;;;4.33;2.22;;;;;;;27.15;39.61;100707.94;1694933;80;21141;-81
2022/06/29 11:31:40;;;;;;;3.12;2.00;;;;;;;27.15;39.55;100708.75;1731973;81;21028;-81
2022/06/29 11:34:06;;;;;;;4.45;2.47;;;;;;;27.16;39.44;100715.11;1742656;81;21037;-81
2022/06/29 11:36:32;;;;;;;3.65;1.98;;;;;;;27.18;39.41;100714.99;1743554;80;21037;-81
2022/06/29 11:39:06;;;;;;;2.90;2.02;;;;;;;27.19;39.30;100713.02;1694568;82;21059;-81
2022/06/29 11:44:27;;;;;;;3.60;2.15;;;;;;;27.23;39.33;100701.33;1748299;81;21115;-82
2022/06/29 11:46:55;;;;;;;4.45;2.20;;;;;;;27.21;39.58;100684.92;1740687;81;21632;-82
2022/06/29 11:49:33;;;;;;;3.12;2.00;;;;;;;27.20;39.63;100683.30;1757796;80;20914;-82
2022/06/29 11:52:03;;;;;;;7.08;1.90;;;;;;;27.20;39.39;100683.30;1741358;80;21683;-82
2022/06/29 11:54:44;;;;;;;3.15;1.77;;;;;;;27.24;39.09;100682.01;1743446;81;21096;-82
2022/06/29 11:57:14;;;;;;;3.52;1.87;;;;;;;27.28;38.89;100672.30;1748178;81;21044;-82